Time;durP1;ratioP1;P1;durP2;ratioP2;P2;SDS_P1;SDS_P2;PMS_P1;PMS_P2;Temp;Humidity;BMP_temperature;BMP_pressure;BME280_temperature;BME280_humidity;BME280_pressure;Samples;Min_cycle;Max_cycle;Signal;HPM_P1;HPM_P2
2024/01/09 00:00:47;;;;;;;;;;;-3.90;99.90;;;;;;5090074;28;20044;-78
2024/01/09 00:03:12;;;;;;;1.00;1.00;;;-3.90;99.90;;;;;;5098726;28;19923;-78
2024/01/09 00:05:38;;;;;;;;;;;-3.90;99.90;;;;;;5102598;27;20075;-78
2024/01/09 00:08:04;;;;;;;0.95;0.95;;;-3.90;99.90;;;;;;5103774;28;19927;-78
2024/01/09 00:10:29;;;;;;;;;;;-3.90;99.90;;;;;;5104143;27;20051;-77
2024/01/09 00:12:56;;;;;;;0.80;0.80;;;-3.90;99.90;;;;;;5086734;28;20368;-78
2024/01/09 00:15:22;;;;;;;1.00;1.00;;;-4.00;99.90;;;;;;5104501;28;20400;-82
2024/01/09 00:17:47;;;;;;;;;;;-4.00;99.90;;;;;;5082513;28;20032;-80
2024/01/09 00:20:14;;;;;;;0.88;0.88;;;-4.00;99.90;;;;;;5103287;28;19923;-78
2024/01/09 00:22:41;;;;;;;1.30;1.27;;;-4.00;99.90;;;;;;5111407;27;20051;-78
2024/01/09 00:25:07;;;;;;;1.00;1.00;;;-4.10;99.90;;;;;;5099896;28;20481;-78
2024/01/09 00:27:33;;;;;;;0.82;0.82;;;-4.10;99.90;;;;;;5080436;28;20051;-77
2024/01/09 00:29:59;;;;;;;;;;;-4.10;99.90;;;;;;5077408;28;20036;-77
2024/01/09 00:32:25;;;;;;;0.90;0.90;;;-4.10;99.90;;;;;;5098888;28;19919;-77
2024/01/09 00:34:50;;;;;;;;;;;-4.10;99.90;;;;;;5102371;28;20031;-78
2024/01/09 00:37:16;;;;;;;0.80;0.80;;;-4.10;99.90;;;;;;5064831;28;19951;-80
2024/01/09 00:39:42;;;;;;;;;;;-4.20;99.90;;;;;;5083508;28;20032;-78
2024/01/09 00:42:08;;;;;;;0.90;0.90;;;-4.20;99.90;;;;;;5077244;28;19927;-79
2024/01/09 00:44:33;;;;;;;;;;;-4.20;99.90;;;;;;5081199;28;20126;-81
2024/01/09 00:46:59;;;;;;;0.95;0.95;;;-4.20;99.90;;;;;;5081822;28;20012;-79
2024/01/09 00:49:24;;;;;;;;;;;-4.20;99.90;;;;;;5099909;28;20051;-78
2024/01/09 00:51:50;;;;;;;1.00;1.00;;;-4.20;99.90;;;;;;5082876;28;20006;-75
2024/01/09 00:54:16;;;;;;;;;;;-4.30;99.90;;;;;;5101312;28;20388;-78
2024/01/09 00:56:41;;;;;;;0.93;0.93;;;-4.30;99.90;;;;;;5061838;28;19935;-79
2024/01/09 00:59:08;;;;;;;;;;;-4.30;99.90;;;;;;5084096;28;20052;-80
2024/01/09 01:01:34;;;;;;;0.90;0.90;;;-4.30;99.90;;;;;;5098141;28;19990;-76
2024/01/09 01:04:00;;;;;;;0.95;0.95;;;-4.40;99.90;;;;;;5079946;28;20047;-77
2024/01/09 01:06:26;;;;;;;;;;;-4.40;99.90;;;;;;5111031;28;20118;-75
2024/01/09 01:08:51;;;;;;;1.00;1.00;;;-4.50;99.90;;;;;;5115558;28;19969;-79
2024/01/09 01:11:17;;;;;;;;;;;-4.50;99.90;;;;;;5109148;28;20048;-77
2024/01/09 01:13:43;;;;;;;1.00;1.00;;;-4.60;99.90;;;;;;5110998;28;20211;-77
2024/01/09 01:16:08;;;;;;;;;;;-4.50;99.90;;;;;;5091320;28;20614;-77
2024/01/09 01:18:34;;;;;;;1.00;1.00;;;-4.60;99.90;;;;;;5089674;28;19942;-78
2024/01/09 01:21:00;;;;;;;;;;;-4.60;99.90;;;;;;5111610;28;20039;-76
2024/01/09 01:23:25;;;;;;;0.80;0.80;;;-4.60;99.90;;;;;;5073658;28;19997;-75
2024/01/09 01:25:51;;;;;;;;;;;-4.60;99.90;;;;;;5106992;28;20055;-74
2024/01/09 01:28:17;;;;;;;0.90;0.90;;;-4.60;99.90;;;;;;5113782;28;19981;-74
2024/01/09 01:30:42;;;;;;;;;;;-4.60;99.90;;;;;;5109298;28;20484;-78
2024/01/09 01:33:08;;;;;;;0.90;0.90;;;-4.60;99.90;;;;;;5092152;28;19920;-75
2024/01/09 01:35:34;;;;;;;;;;;-4.60;99.90;;;;;;5105618;28;20452;-76
2024/01/09 01:37:59;;;;;;;1.00;1.00;;;-4.70;99.90;;;;;;5109488;28;20280;-76
2024/01/09 01:40:25;;;;;;;;;;;-4.70;99.90;;;;;;5112010;28;20053;-78
2024/01/09 01:42:51;;;;;;;1.00;1.00;;;-4.70;99.90;;;;;;5111128;28;20222;-76
2024/01/09 01:45:21;;;;;;;;;;;-4.80;99.90;;;;;;5115761;27;20114;-73
2024/01/09 01:47:47;;;;;;;1.38;1.27;;;-4.80;99.90;;;;;;5112289;27;20295;-75
2024/01/09 01:50:15;;;;;;;0.93;0.93;;;-4.80;99.90;;;;;;5078011;27;20437;-78
2024/01/09 01:52:43;;;;;;;0.90;0.90;;;-4.90;99.90;;;;;;5118409;27;20138;-76
2024/01/09 01:55:13;;;;;;;0.90;0.90;;;-4.90;99.90;;;;;;5095099;27;20075;-77
2024/01/09 01:57:40;;;;;;;0.90;0.90;;;-4.90;99.90;;;;;;5113565;27;20381;-76
2024/01/09 02:00:07;;;;;;;0.90;0.90;;;-5.00;99.90;;;;;;5110122;28;20057;-78
2024/01/09 02:02:35;;;;;;;0.90;0.90;;;-5.00;99.90;;;;;;5111534;27;20092;-78
2024/01/09 02:05:02;;;;;;;1.00;1.00;;;-5.00;99.90;;;;;;5093954;28;20681;-77
2024/01/09 02:07:32;;;;;;;1.20;1.10;;;-5.10;99.90;;;;;;5112645;27;20336;-77
2024/01/09 02:09:58;;;;;;;0.93;0.93;;;-5.10;99.90;;;;;;5108938;28;20096;-77
2024/01/09 02:12:24;;;;;;;;;;;-5.10;99.90;;;;;;5104502;28;20036;-76
2024/01/09 02:14:50;;;;;;;1.00;1.00;;;-5.10;99.90;;;;;;5119687;27;19922;-78
2024/01/09 02:17:15;;;;;;;;;;;-5.00;99.90;;;;;;5094525;28;20100;-79
2024/01/09 02:19:41;;;;;;;1.00;1.00;;;-5.00;99.90;;;;;;5112533;27;19920;-76
2024/01/09 02:22:06;;;;;;;;;;;-5.00;99.90;;;;;;5108417;27;20051;-76
2024/01/09 02:24:32;;;;;;;0.90;0.90;;;-5.00;99.90;;;;;;5111208;28;19920;-77
2024/01/09 02:27:18;;;;;;;;;;;-5.00;99.90;;;;;;5114181;27;20538;-77
2024/01/09 02:29:50;;;;;;;0.90;0.90;;;-5.00;99.90;;;;;;5086865;27;19920;-76
2024/01/09 02:32:21;;;;;;;0.90;0.90;;;-5.10;99.90;;;;;;5096759;28;20118;-77
2024/01/09 02:34:48;;;;;;;1.05;1.05;;;-5.10;99.90;;;;;;5110864;27;20048;-74
2024/01/09 02:37:13;;;;;;;0.98;0.98;;;-5.10;99.90;;;;;;5101287;28;20035;-77
2024/01/09 02:39:39;;;;;;;;;;;-5.10;99.90;;;;;;5094060;28;20097;-75
2024/01/09 02:42:05;;;;;;;1.00;1.00;;;-5.10;99.90;;;;;;5103363;27;20272;-76
2024/01/09 02:44:31;;;;;;;;;;;-5.00;99.90;;;;;;5099406;28;20039;-75
2024/01/09 02:46:57;;;;;;;1.20;1.10;;;-5.20;99.90;;;;;;5093650;28;19945;-76
2024/01/09 02:49:22;;;;;;;;;;;-5.20;99.90;;;;;;5119328;27;20035;-76
2024/01/09 02:51:48;;;;;;;1.00;1.00;;;-5.30;99.90;;;;;;5107654;28;19923;-76
2024/01/09 02:54:13;;;;;;;;;;;-5.30;99.90;;;;;;5108242;27;20044;-75
2024/01/09 02:56:39;;;;;;;1.00;1.00;;;-5.30;99.90;;;;;;5100709;28;19930;-79
2024/01/09 02:59:05;;;;;;;0.98;0.98;;;-5.30;99.90;;;;;;5093284;28;20048;-76
2024/01/09 03:01:32;;;;;;;0.90;0.90;;;-5.20;99.90;;;;;;5113444;27;20058;-76
2024/01/09 03:03:57;;;;;;;1.00;1.00;;;-5.40;99.90;;;;;;5111807;27;20132;-77
2024/01/09 03:06:23;;;;;;;;;;;-5.30;99.90;;;;;;5111230;27;20075;-75
2024/01/09 03:08:49;;;;;;;1.17;1.10;;;-5.30;99.90;;;;;;5084171;28;19927;-75
2024/01/09 03:11:15;;;;;;;;;;;-5.40;99.90;;;;;;5092519;28;20047;-75
2024/01/09 03:13:40;;;;;;;1.00;1.00;;;-5.40;99.90;;;;;;5111180;27;19915;-74
2024/01/09 03:16:12;;;;;;;;;;;-5.40;99.90;;;;;;5095563;27;20111;-75
2024/01/09 03:18:42;;;;;;;0.90;0.90;;;-5.40;99.90;;;;;;5111687;27;19920;-75
2024/01/09 03:21:10;;;;;;;1.10;1.10;;;-5.40;99.90;;;;;;5109202;27;20131;-74
2024/01/09 03:23:36;;;;;;;1.00;1.00;;;-5.40;99.90;;;;;;5092439;27;20032;-76
2024/01/09 03:26:01;;;;;;;;;;;-5.40;99.90;;;;;;5109168;28;20045;-76
2024/01/09 03:28:28;;;;;;;0.90;0.90;;;-5.30;99.90;;;;;;5110041;27;19926;-76
2024/01/09 03:30:54;;;;;;;1.10;1.10;;;-5.50;99.90;;;;;;5100599;28;20039;-77
2024/01/09 03:33:20;;;;;;;0.90;0.90;;;-5.40;99.90;;;;;;5119363;27;20402;-76
2024/01/09 03:35:45;;;;;;;;;;;-5.40;99.90;;;;;;5088279;27;20069;-77
2024/01/09 03:38:12;;;;;;;1.08;1.08;;;-5.40;99.90;;;;;;5097641;28;19919;-77
2024/01/09 03:40:37;;;;;;;1.00;1.00;;;-5.50;99.90;;;;;;5092512;27;20043;-74
2024/01/09 03:43:05;;;;;;;;;;;-5.50;99.90;;;;;;5117243;27;20039;-74
2024/01/09 03:45:31;;;;;;;2.05;1.95;;;-5.50;99.90;;;;;;5104527;28;19920;-76
2024/01/09 03:47:57;;;;;;;;;;;-5.50;99.90;;;;;;5092759;28;20101;-76
2024/01/09 03:50:23;;;;;;;0.90;0.90;;;-5.50;99.90;;;;;;5109224;28;19967;-75
2024/01/09 03:52:49;;;;;;;;;;;-5.60;99.90;;;;;;5092572;28;20051;-75
2024/01/09 03:55:15;;;;;;;1.02;1.02;;;-5.60;99.90;;;;;;5074571;28;19942;-76
2024/01/09 03:57:42;;;;;;;0.90;0.90;;;-5.60;99.90;;;;;;5108791;28;20044;-74
2024/01/09 04:00:08;;;;;;;1.00;1.00;;;-5.60;99.90;;;;;;5111416;27;20046;-77
2024/01/09 04:02:34;;;;;;;0.90;0.90;;;-5.70;99.90;;;;;;5114704;27;20462;-77
2024/01/09 04:05:01;;;;;;;1.00;1.00;;;-5.70;99.90;;;;;;5109617;27;20337;-75
2024/01/09 04:07:27;;;;;;;1.20;1.10;;;-5.70;99.90;;;;;;5116254;27;20039;-76
2024/01/09 04:09:52;;;;;;;;;;;-5.70;99.90;;;;;;5092673;28;20472;-75
2024/01/09 04:12:18;;;;;;;1.13;1.08;;;-5.70;99.90;;;;;;5113301;27;20383;-75
2024/01/09 04:14:44;;;;;;;;;;;-5.70;99.90;;;;;;5100387;28;20077;-76
2024/01/09 04:17:09;;;;;;;1.00;1.00;;;-5.80;99.90;;;;;;5109051;28;19927;-77
2024/01/09 04:19:39;;;;;;;;;;;-5.80;99.90;;;;;;5117879;27;20139;-75
2024/01/09 04:22:06;;;;;;;0.98;0.98;;;-5.80;99.90;;;;;;5108807;28;19943;-77
2024/01/09 04:24:35;;;;;;;1.00;1.00;;;-5.80;99.90;;;;;;5109764;27;20070;-77
2024/01/09 04:27:04;;;;;;;1.05;1.05;;;-5.80;99.90;;;;;;5097976;28;20035;-76
2024/01/09 04:29:29;;;;;;;1.00;1.00;;;-5.80;99.90;;;;;;5109164;27;20142;-75
2024/01/09 04:31:55;;;;;;;;;;;-5.80;99.90;;;;;;5099706;28;20035;-75
2024/01/09 04:34:21;;;;;;;1.05;1.05;;;-5.80;99.90;;;;;;5088839;28;20010;-75
2024/01/09 04:36:46;;;;;;;1.05;1.05;;;-5.80;99.90;;;;;;5110538;27;20428;-75
2024/01/09 04:39:12;;;;;;;;;;;-5.70;99.90;;;;;;5097727;28;20043;-76
2024/01/09 04:41:38;;;;;;;0.90;0.90;;;-5.70;99.90;;;;;;5108384;27;20075;-77
2024/01/09 04:44:03;;;;;;;;;;;-5.80;99.90;;;;;;5116920;27;20217;-77
2024/01/09 04:46:29;;;;;;;0.90;0.90;;;-5.80;99.90;;;;;;5099873;28;20333;-76
2024/01/09 04:48:55;;;;;;;0.90;0.90;;;-6.90;99.90;;;;;;5077757;27;20042;-76
2024/01/09 04:51:21;;;;;;;0.98;0.98;;;-5.80;99.90;;;;;;5066531;28;20043;-77
2024/01/09 04:53:46;;;;;;;;;;;-5.90;99.90;;;;;;5108767;28;20143;-76
2024/01/09 04:56:12;;;;;;;1.00;1.00;;;-5.90;99.90;;;;;;5112071;27;20295;-76
2024/01/09 04:58:38;;;;;;;;;;;-6.00;99.90;;;;;;5108412;28;20054;-77
2024/01/09 05:01:03;;;;;;;1.00;1.00;;;-6.10;99.90;;;;;;5076255;28;20330;-76
2024/01/09 05:03:29;;;;;;;;;;;-6.10;99.90;;;;;;5098665;28;20433;-76
2024/01/09 05:05:55;;;;;;;1.10;1.10;;;-6.20;99.90;;;;;;5089905;28;19942;-76
2024/01/09 05:08:20;;;;;;;0.90;0.90;;;-6.20;99.90;;;;;;5092967;28;20039;-76
2024/01/09 05:10:46;;;;;;;;;;;-6.30;99.90;;;;;;5114113;28;20066;-76
2024/01/09 05:13:12;;;;;;;1.25;1.15;;;-6.30;99.90;;;;;;5112210;28;19916;-77
2024/01/09 05:15:38;;;;;;;;;;;-6.30;99.90;;;;;;5115809;28;20039;-76
2024/01/09 05:18:04;;;;;;;1.00;1.00;;;-6.30;99.90;;;;;;5103655;28;19920;-76
2024/01/09 05:20:29;;;;;;;;;;;-6.30;99.90;;;;;;5115037;27;20044;-77
2024/01/09 05:22:55;;;;;;;1.20;1.10;;;-6.40;99.90;;;;;;5084618;28;19981;-76
2024/01/09 05:25:21;;;;;;;1.00;1.00;;;-6.40;99.90;;;;;;5095788;28;20075;-76
2024/01/09 05:27:46;;;;;;;;;;;-6.40;99.90;;;;;;5106764;27;20078;-75
2024/01/09 05:30:13;;;;;;;1.00;1.00;;;-6.40;99.90;;;;;;5112598;28;19915;-75
2024/01/09 05:32:39;;;;;;;1.02;1.02;;;-6.50;99.90;;;;;;5114746;27;20467;-76
2024/01/09 05:35:04;;;;;;;;;;;-6.50;99.90;;;;;;5102290;28;20448;-77
2024/01/09 05:37:30;;;;;;;1.17;1.10;;;-6.50;99.90;;;;;;5108020;28;19916;-76
2024/01/09 05:39:56;;;;;;;;;;;-6.30;99.90;;;;;;5087120;28;20092;-77
2024/01/09 05:42:21;;;;;;;1.27;1.17;;;-6.50;99.90;;;;;;5095230;28;19923;-76
2024/01/09 05:44:47;;;;;;;1.05;1.05;;;-6.30;99.90;;;;;;5096506;27;20044;-76
2024/01/09 05:47:13;;;;;;;1.02;1.02;;;-6.60;99.90;;;;;;5112822;27;20047;-75
2024/01/09 05:49:38;;;;;;;1.00;1.00;;;-6.60;99.90;;;;;;5111649;28;20044;-76
2024/01/09 05:52:04;;;;;;;1.20;1.10;;;-6.50;99.90;;;;;;5097542;27;20147;-76
2024/01/09 05:54:30;;;;;;;1.00;1.00;;;-6.50;99.90;;;;;;5116770;27;20052;-77
2024/01/09 05:56:56;;;;;;;1.00;1.00;;;-6.20;99.90;;;;;;5112409;27;20047;-75
2024/01/09 05:59:21;;;;;;;;;;;-6.50;99.90;;;;;;5119510;27;20071;-76
2024/01/09 06:01:47;;;;;;;3.33;2.92;;;-6.50;99.90;;;;;;5110645;28;19929;-77
2024/01/09 06:04:12;;;;;;;;;;;-6.50;99.90;;;;;;5114161;27;20055;-77
2024/01/09 06:06:38;;;;;;;1.23;1.13;;;-6.50;99.90;;;;;;5108998;27;19994;-77
2024/01/09 06:09:04;;;;;;;1.00;1.00;;;-6.50;99.90;;;;;;5111827;27;20035;-76
2024/01/09 06:11:29;;;;;;;1.00;1.00;;;-6.50;99.90;;;;;;5110186;28;20180;-75
2024/01/09 06:13:55;;;;;;;;;;;-6.40;99.90;;;;;;5094501;28;20040;-76
2024/01/09 06:16:22;;;;;;;1.05;1.05;;;-6.40;99.90;;;;;;5113154;27;19916;-76
2024/01/09 06:18:48;;;;;;;1.00;1.00;;;-6.40;99.90;;;;;;5100887;28;20373;-76
2024/01/09 06:21:14;;;;;;;;;;;-6.40;99.90;;;;;;5111972;27;20040;-76
2024/01/09 06:23:39;;;;;;;1.00;1.00;;;-6.40;99.90;;;;;;5119127;27;19924;-77
2024/01/09 06:26:05;;;;;;;;;;;-6.40;99.90;;;;;;5090406;28;20077;-76
2024/01/09 06:28:32;;;;;;;0.90;0.90;;;-6.40;99.90;;;;;;5112099;27;20006;-78
2024/01/09 06:30:57;;;;;;;1.20;1.17;;;-6.40;99.90;;;;;;5100368;28;20035;-76
2024/01/09 06:33:23;;;;;;;;;;;-6.50;99.90;;;;;;5094419;28;20081;-77
2024/01/09 06:35:48;;;;;;;1.30;1.20;;;-6.50;99.90;;;;;;5095564;27;20324;-76
2024/01/09 06:38:14;;;;;;;0.95;0.95;;;-6.50;99.90;;;;;;5099209;28;20055;-77
2024/01/09 06:40:40;;;;;;;;;;;-6.90;99.90;;;;;;5111987;27;20794;-75
2024/01/09 06:43:07;;;;;;;1.00;1.00;;;-6.60;99.90;;;;;;5117850;27;19927;-77
2024/01/09 06:45:34;;;;;;;1.00;1.00;;;-6.60;99.90;;;;;;5092903;28;20050;-79
2024/01/09 06:48:00;;;;;;;0.90;0.90;;;-6.60;99.90;;;;;;5097176;27;20046;-76
2024/01/09 06:50:25;;;;;;;;;;;-6.60;99.90;;;;;;5116283;27;20453;-76
2024/01/09 06:52:51;;;;;;;0.90;0.90;;;-6.60;99.90;;;;;;5111110;27;19916;-77
2024/01/09 06:55:17;;;;;;;;;;;-6.60;99.90;;;;;;5112243;27;20456;-77
2024/01/09 06:57:43;;;;;;;1.00;1.00;;;-6.60;99.90;;;;;;5110032;28;19916;-76
2024/01/09 07:00:09;;;;;;;0.90;0.90;;;-6.60;99.90;;;;;;5095861;27;20195;-74
2024/01/09 07:02:34;;;;;;;0.90;0.90;;;-6.60;99.90;;;;;;5115579;27;20056;-74
2024/01/09 07:05:00;;;;;;;;;;;-6.60;99.90;;;;;;5088133;27;20043;-76
2024/01/09 07:07:26;;;;;;;1.13;1.10;;;-6.60;99.90;;;;;;5118285;27;19927;-75
2024/01/09 07:09:51;;;;;;;1.00;1.00;;;-6.60;99.90;;;;;;5109804;28;20036;-75
2024/01/09 07:12:17;;;;;;;1.20;1.10;;;-6.60;99.90;;;;;;5093000;28;20114;-77
2024/01/09 07:14:43;;;;;;;;;;;-5.50;99.90;;;;;;5109855;28;20044;-75
2024/01/09 07:17:09;;;;;;;1.00;1.00;;;-6.60;99.90;;;;;;5101741;28;19943;-75
2024/01/09 07:19:34;;;;;;;;;;;-6.60;99.90;;;;;;5123568;27;20418;-74
2024/01/09 07:22:00;;;;;;;1.20;1.10;;;-6.60;99.90;;;;;;5114244;27;20363;-76
2024/01/09 07:24:26;;;;;;;1.00;1.00;;;-6.60;99.90;;;;;;5094242;27;20036;-76
2024/01/09 07:26:51;;;;;;;1.00;1.00;;;-6.50;99.90;;;;;;5113079;27;20096;-75
2024/01/09 07:29:19;;;;;;;;;;;-6.50;99.90;;;;;;5110706;28;20036;-76
2024/01/09 07:31:47;;;;;;;0.90;0.90;;;-6.50;99.90;;;;;;5112827;27;19915;-74
2024/01/09 07:34:14;;;;;;;1.00;1.00;;;-6.40;99.90;;;;;;5114548;27;20088;-74
2024/01/09 07:36:39;;;;;;;0.93;0.93;;;-6.40;99.90;;;;;;5091622;28;20039;-77
2024/01/09 07:39:05;;;;;;;;;;;-6.40;99.90;;;;;;5079930;27;20043;-77
2024/01/09 07:41:33;;;;;;;1.67;1.63;;;-6.40;99.90;;;;;;5102896;27;19965;-77
2024/01/09 07:44:01;;;;;;;1.08;1.05;;;-6.40;99.90;;;;;;5103390;27;20091;-75
2024/01/09 07:46:27;;;;;;;1.10;1.05;;;-6.40;99.90;;;;;;5109225;27;20039;-76
2024/01/09 07:48:52;;;;;;;;;;;-6.40;99.90;;;;;;5109844;27;20054;-77
2024/01/09 07:51:18;;;;;;;1.17;1.08;;;-5.40;99.90;;;;;;5099291;28;19926;-74
2024/01/09 07:53:44;;;;;;;1.08;1.05;;;-6.30;99.90;;;;;;5109563;28;20118;-77
2024/01/09 07:56:19;;;;;;;0.90;0.90;;;-5.60;99.90;;;;;;5095314;27;20046;-74
2024/01/09 07:58:46;;;;;;;1.00;1.00;;;-6.30;99.90;;;;;;5113325;27;20047;-77
2024/01/09 08:01:12;;;;;;;1.00;1.00;;;-6.30;99.90;;;;;;5089218;27;20036;-76
2024/01/09 08:03:40;;;;;;;1.05;1.02;;;-6.20;99.90;;;;;;5114761;27;20104;-75
2024/01/09 08:06:16;;;;;;;0.90;0.90;;;-6.20;99.90;;;;;;5109739;27;20398;-75
2024/01/09 08:08:42;;;;;;;1.05;1.05;;;-6.20;99.90;;;;;;5114870;27;20533;-73
2024/01/09 08:11:09;;;;;;;0.90;0.90;;;-6.20;99.90;;;;;;5107608;28;20051;-76
2024/01/09 08:13:40;;;;;;;1.00;1.00;;;-6.20;99.90;;;;;;5102617;28;20043;-77
2024/01/09 08:16:08;;;;;;;1.00;1.00;;;-6.20;99.90;;;;;;5105008;28;20035;-76
2024/01/09 08:18:34;;;;;;;0.90;0.90;;;-6.20;99.90;;;;;;5091920;28;20050;-77
2024/01/09 08:21:00;;;;;;;1.00;1.00;;;-6.20;99.90;;;;;;5108592;28;20110;-76
2024/01/09 08:23:25;;;;;;;;;;;-6.20;99.90;;;;;;5087616;27;20232;-76
2024/01/09 08:25:51;;;;;;;0.90;0.90;;;-6.20;99.90;;;;;;5115290;27;20380;-77
2024/01/09 08:28:17;;;;;;;;;;;-6.10;99.90;;;;;;5108929;28;20047;-75
2024/01/09 08:30:43;;;;;;;0.90;0.90;;;-6.10;99.90;;;;;;5111212;27;19976;-76
2024/01/09 08:33:08;;;;;;;;;;;-6.00;99.90;;;;;;5112050;27;20082;-73
2024/01/09 08:35:34;;;;;;;0.80;0.80;;;-6.00;99.90;;;;;;5109254;27;19920;-76
2024/01/09 08:38:00;;;;;;;0.90;0.90;;;-5.90;99.90;;;;;;5091990;28;20152;-78
2024/01/09 08:40:26;;;;;;;;;;;-5.90;99.90;;;;;;5093847;28;20062;-79
2024/01/09 08:42:52;;;;;;;1.20;1.10;;;-5.70;99.90;;;;;;5108742;27;20382;-76
2024/01/09 08:45:18;;;;;;;;;;;-5.80;99.90;;;;;;5088329;28;20027;-74
2024/01/09 08:47:44;;;;;;;1.00;1.00;;;-5.70;99.90;;;;;;5101626;28;19931;-73
2024/01/09 08:50:09;;;;;;;;;;;-5.70;99.90;;;;;;5099264;28;20039;-74
2024/01/09 08:52:35;;;;;;;1.20;1.10;;;-5.70;99.90;;;;;;5108354;28;20291;-76
2024/01/09 08:55:03;;;;;;;0.98;0.98;;;-5.60;99.90;;;;;;5108792;27;20051;-74
2024/01/09 08:57:29;;;;;;;0.95;0.95;;;-5.60;99.90;;;;;;5114575;27;20636;-73
2024/01/09 08:59:56;;;;;;;1.00;1.00;;;-5.50;99.90;;;;;;5108355;28;20086;-74
2024/01/09 09:02:22;;;;;;;1.00;1.00;;;-5.40;99.90;;;;;;5115395;27;20047;-76
2024/01/09 09:04:49;;;;;;;6.13;5.78;;;-5.40;99.90;;;;;;5107325;28;20055;-74
2024/01/09 09:07:15;;;;;;;1.00;1.00;;;-5.30;99.90;;;;;;5119811;28;20044;-76
2024/01/09 09:09:41;;;;;;;;;;;-5.30;99.90;;;;;;5114672;28;20039;-76
2024/01/09 09:12:07;;;;;;;0.80;0.80;;;-5.20;99.90;;;;;;5107817;28;19915;-76
2024/01/09 09:14:33;;;;;;;;;;;-5.20;99.90;;;;;;5090976;28;20044;-78
2024/01/09 09:16:59;;;;;;;1.00;1.00;;;-5.10;99.90;;;;;;5073995;28;19920;-76
2024/01/09 09:19:25;;;;;;;0.93;0.93;;;-5.00;99.90;;;;;;5108325;28;20044;-75
2024/01/09 09:21:52;;;;;;;1.00;1.00;;;-4.70;99.90;;;;;;5080015;28;20035;-76
2024/01/09 09:24:17;;;;;;;1.00;1.00;;;-4.90;99.90;;;;;;5111230;28;20027;-74
2024/01/09 09:26:43;;;;;;;;;;;-4.90;99.90;;;;;;5088103;28;20093;-75
2024/01/09 09:29:09;;;;;;;0.90;0.90;;;-4.80;99.90;;;;;;5089657;28;19919;-76
2024/01/09 09:31:35;;;;;;;0.98;0.98;;;-4.80;99.90;;;;;;5112147;28;20427;-76
2024/01/09 09:34:01;;;;;;;;;;;-4.80;99.90;;;;;;5115712;28;20040;-76
2024/01/09 09:36:27;;;;;;;0.95;0.95;;;-4.80;99.90;;;;;;5099538;28;20316;-74
2024/01/09 09:38:53;;;;;;;;;;;-4.70;99.90;;;;;;5101744;28;20065;-79
2024/01/09 09:41:22;;;;;;;0.93;0.93;;;-4.70;99.90;;;;;;5116532;28;19963;-73
2024/01/09 09:43:58;;;;;;;0.90;0.90;;;-3.50;99.90;;;;;;5095140;28;20095;-75
2024/01/09 09:46:32;;;;;;;0.90;0.90;;;-4.20;99.90;;;;;;5110494;28;20044;-79
2024/01/09 09:48:58;;;;;;;1.00;1.00;;;-4.00;99.90;;;;;;5110124;28;20039;-77
2024/01/09 09:51:25;;;;;;;0.73;0.73;;;-4.20;99.90;;;;;;5096393;28;20042;-74
2024/01/09 09:53:54;;;;;;;0.85;0.85;;;-4.40;99.90;;;;;;5108382;28;20105;-74
2024/01/09 09:56:21;;;;;;;0.85;0.85;;;-4.30;99.90;;;;;;5114993;28;20058;-74
2024/01/09 09:58:46;;;;;;;1.00;1.00;;;-4.20;99.90;;;;;;5108393;28;20047;-74
2024/01/09 10:01:13;;;;;;;;;;;-3.80;99.90;;;;;;5075455;28;20637;-74
2024/01/09 10:03:54;;;;;;;0.90;0.90;;;-4.00;99.90;;;;;;5113239;28;20003;-75
2024/01/09 10:06:20;;;;;;;0.80;0.80;;;-3.90;99.90;;;;;;5115203;27;20039;-72
2024/01/09 10:08:46;;;;;;;;;;;-3.80;99.90;;;;;;5100599;28;20133;-76
2024/01/09 10:11:12;;;;;;;0.90;0.90;;;-3.80;99.90;;;;;;5121896;27;19923;-76
2024/01/09 10:13:39;;;;;;;;;;;-3.70;99.90;;;;;;5114374;27;20043;-75
2024/01/09 10:16:05;;;;;;;0.90;0.90;;;-3.60;99.90;;;;;;5111212;28;19923;-77
2024/01/09 10:18:32;;;;;;;2.20;2.08;;;-3.50;99.90;;;;;;5113747;27;20039;-78
2024/01/09 10:20:59;;;;;;;0.80;0.80;;;-3.50;99.90;;;;;;5116539;27;20346;-75
2024/01/09 10:23:27;;;;;;;0.88;0.88;;;-3.40;99.90;;;;;;5121603;27;20143;-76
2024/01/09 10:25:54;;;;;;;1.02;1.02;;;-3.40;99.90;;;;;;5127021;27;20510;-73
2024/01/09 10:28:19;;;;;;;0.70;0.70;;;-3.30;99.90;;;;;;5111262;28;20036;-77
2024/01/09 10:30:45;;;;;;;;;;;-3.30;99.90;;;;;;5113244;27;20037;-77
2024/01/09 10:33:12;;;;;;;0.80;0.80;;;-3.20;99.90;;;;;;5115366;27;20005;-76
2024/01/09 10:35:39;;;;;;;0.80;0.80;;;-2.70;99.90;;;;;;5112353;27;20032;-73
2024/01/09 10:38:05;;;;;;;1.15;1.15;;;-3.10;99.90;;;;;;5121086;27;20036;-76
2024/01/09 10:40:30;;;;;;;;;;;-3.10;99.90;;;;;;5111042;28;20399;-77
2024/01/09 10:42:57;;;;;;;0.70;0.70;;;-3.00;99.90;;;;;;5108536;27;19926;-75
2024/01/09 10:45:23;;;;;;;0.80;0.80;;;-3.00;99.90;;;;;;5110689;28;20483;-72
2024/01/09 10:47:53;;;;;;;0.90;0.90;;;-2.90;99.90;;;;;;5111913;27;20043;-74
2024/01/09 10:50:22;;;;;;;0.80;0.80;;;-2.90;99.90;;;;;;5125806;27;20121;-75
2024/01/09 10:52:49;;;;;;;0.80;0.80;;;-2.90;99.90;;;;;;5093756;27;20476;-76
2024/01/09 10:55:18;;;;;;;0.80;0.80;;;-2.80;99.90;;;;;;5112749;27;20370;-74
2024/01/09 10:57:46;;;;;;;0.90;0.90;;;-2.70;99.90;;;;;;5110353;28;20684;-74
2024/01/09 11:00:12;;;;;;;0.85;0.85;;;-2.70;99.90;;;;;;5110440;28;20048;-72
2024/01/09 11:02:39;;;;;;;0.90;0.90;;;-2.70;99.90;;;;;;5092746;28;20059;-74
2024/01/09 11:05:05;;;;;;;0.90;0.90;;;-2.60;99.90;;;;;;5078733;28;20040;-71
2024/01/09 11:07:35;;;;;;;0.82;0.82;;;-2.60;99.90;;;;;;5108507;28;20047;-74
2024/01/09 11:10:03;;;;;;;0.90;0.90;;;-2.60;99.90;;;;;;5110664;28;20043;-73
2024/01/09 11:12:45;;;;;;;0.80;0.80;;;-2.50;99.90;;;;;;5092823;28;20043;-74
2024/01/09 11:15:32;;;;;;;0.80;0.80;;;-2.50;99.90;;;;;;5106899;27;20116;-71
2024/01/09 11:18:06;;;;;;;;;;;-2.40;99.90;;;;;;5124589;27;20047;-73
2024/01/09 11:20:32;;;;;;;0.75;0.75;;;-2.40;99.90;;;;;;5113142;27;19923;-76
2024/01/09 11:22:57;;;;;;;;;;;-2.40;99.90;;;;;;5116448;27;20142;-74
2024/01/09 11:25:24;;;;;;;0.80;0.80;;;-2.40;99.90;;;;;;5106473;27;20435;-76
2024/01/09 11:27:51;;;;;;;0.70;0.70;;;-2.30;99.90;;;;;;5117646;27;20038;-77
2024/01/09 11:30:27;;;;;;;0.90;0.90;;;-2.30;99.90;;;;;;5093149;28;20064;-73
2024/01/09 11:32:53;;;;;;;0.80;0.80;;;-2.30;99.90;;;;;;5085399;28;20039;-76
2024/01/09 11:35:20;;;;;;;;;;;-2.30;99.90;;;;;;5090202;28;20297;-77
2024/01/09 11:37:47;;;;;;;;;;;-2.20;99.90;;;;;;5111844;27;19923;-76
2024/01/09 11:40:15;;;;;;;0.90;0.90;;;-2.20;99.90;;;;;;5099382;28;19920;-75
2024/01/09 11:42:59;;;;;;;0.73;0.73;;;-2.20;99.90;;;;;;5093566;27;20051;-73
2024/01/09 11:45:25;;;;;;;1.00;1.00;;;-2.10;99.90;;;;;;5092655;28;20406;-76
2024/01/09 11:47:53;;;;;;;0.75;0.75;;;-2.10;99.90;;;;;;5111500;27;20043;-75
2024/01/09 11:50:19;;;;;;;0.77;0.77;;;-2.10;99.90;;;;;;5116611;27;20043;-77
2024/01/09 11:52:47;;;;;;;0.90;0.90;;;-2.10;99.90;;;;;;5109564;27;20074;-73
2024/01/09 11:55:14;;;;;;;0.80;0.80;;;-2.00;99.90;;;;;;5111817;27;20047;-77
2024/01/09 11:57:44;;;;;;;0.98;0.98;;;-1.90;99.90;;;;;;5109314;28;20053;-78
2024/01/09 12:00:11;;;;;;;0.80;0.80;;;-1.90;99.90;;;;;;5095455;27;20076;-72
2024/01/09 12:02:37;;;;;;;0.98;0.98;;;-1.90;99.90;;;;;;5114892;27;20500;-72
2024/01/09 12:05:04;;;;;;;0.88;0.88;;;-1.90;99.90;;;;;;5104893;27;20047;-75
2024/01/09 12:07:32;;;;;;;0.90;0.90;;;-1.80;99.90;;;;;;5099918;28;20054;-74
2024/01/09 12:09:59;;;;;;;0.90;0.90;;;-1.80;99.90;;;;;;5109337;28;20050;-75
2024/01/09 12:12:25;;;;;;;0.77;0.77;;;-1.70;99.90;;;;;;5100697;27;20042;-78
2024/01/09 12:14:59;;;;;;;0.80;0.80;;;-1.70;99.90;;;;;;5114916;27;20042;-75
2024/01/09 12:17:37;;;;;;;0.93;0.93;;;-1.70;99.90;;;;;;5111791;27;20101;-73
2024/01/09 12:20:05;;;;;;;0.80;0.80;;;-1.60;99.90;;;;;;5114122;27;20047;-75
2024/01/09 12:22:33;;;;;;;0.90;0.90;;;-1.60;99.90;;;;;;5111255;27;20443;-77
2024/01/09 12:25:00;;;;;;;0.90;0.90;;;-1.60;99.90;;;;;;5114810;27;20035;-74
2024/01/09 12:27:26;;;;;;;0.70;0.70;;;-1.50;99.90;;;;;;5091762;27;20079;-77
2024/01/09 12:29:52;;;;;;;0.70;0.70;;;-1.50;99.90;;;;;;5124176;27;20031;-77
2024/01/09 12:32:20;;;;;;;0.88;0.88;;;-1.50;99.90;;;;;;5109960;28;20054;-77
2024/01/09 12:34:47;;;;;;;0.70;0.70;;;-1.50;99.90;;;;;;5114474;27;20047;-76
2024/01/09 12:37:13;;;;;;;1.67;1.58;;;-1.50;99.90;;;;;;5109978;27;20035;-76
2024/01/09 12:39:39;;;;;;;0.80;0.80;;;-1.40;99.90;;;;;;5092964;27;20530;-77
2024/01/09 12:42:17;;;;;;;0.80;0.80;;;-1.40;99.90;;;;;;5121915;27;20114;-76
2024/01/09 12:44:43;;;;;;;0.80;0.80;;;-1.40;99.90;;;;;;5094138;27;20130;-74
2024/01/09 12:47:18;;;;;;;0.80;0.80;;;-1.40;99.90;;;;;;5114904;27;20042;-73
2024/01/09 12:49:51;;;;;;;0.80;0.80;;;-1.40;99.90;;;;;;5119029;27;20043;-77
2024/01/09 12:52:20;;;;;;;0.80;0.80;;;-1.40;99.90;;;;;;5115755;27;20501;-74
2024/01/09 12:54:47;;;;;;;0.60;0.60;;;-1.30;99.90;;;;;;5108457;28;20396;-74
2024/01/09 12:57:13;;;;;;;0.70;0.70;;;-1.30;99.90;;;;;;5114962;27;20720;-73
2024/01/09 12:59:45;;;;;;;0.70;0.70;;;-1.30;99.90;;;;;;5103725;28;20073;-74
2024/01/09 13:02:11;;;;;;;0.80;0.80;;;-1.30;99.90;;;;;;5110685;28;20121;-77
2024/01/09 13:04:36;;;;;;;0.80;0.80;;;-1.30;99.90;;;;;;5113786;27;20056;-73
2024/01/09 13:07:03;;;;;;;0.70;0.70;;;-1.20;99.90;;;;;;5093501;28;20047;-75